createdAt,value
2022-09-30T00:02:06.513Z,83.46
2022-09-30T00:04:36.977Z,83.41
2022-09-30T00:07:07.388Z,83.44
2022-09-30T00:09:37.941Z,83.62
2022-09-30T00:12:08.342Z,83.77
2022-09-30T00:14:39.180Z,83.74
2022-09-30T00:17:09.545Z,84.02
2022-09-30T00:19:40.432Z,84.12
2022-09-30T00:22:10.872Z,83.96
2022-09-30T00:24:45.522Z,83.96
2022-09-30T00:27:19.952Z,84.02
2022-09-30T00:29:50.864Z,83.88
2022-09-30T00:32:21.328Z,83.90
2022-09-30T00:34:51.646Z,84.10
2022-09-30T00:37:22.136Z,83.90
2022-09-30T00:39:52.566Z,84.05
2022-09-30T00:42:22.937Z,84.19
2022-09-30T00:44:59.725Z,84.22
2022-09-30T00:47:36.522Z,84.27
2022-09-30T00:50:12.857Z,84.27
2022-09-30T00:52:45.448Z,84.24
2022-09-30T00:55:28.013Z,84.32
2022-09-30T00:58:00.263Z,84.37
2022-09-30T01:00:30.736Z,84.45
2022-09-30T01:03:02.241Z,84.32
2022-09-30T01:05:34.511Z,84.39
2022-09-30T01:08:07.249Z,84.39
2022-09-30T01:10:37.989Z,84.35
2022-09-30T01:13:08.384Z,84.58
2022-09-30T01:15:47.433Z,84.52
2022-09-30T01:18:23.809Z,84.76
2022-09-30T01:21:05.845Z,84.63
2022-09-30T01:23:51.663Z,84.57
2022-09-30T01:26:39.446Z,84.55
2022-09-30T01:29:29.357Z,84.64
2022-09-30T01:32:02.906Z,84.61
2022-09-30T01:34:56.524Z,84.87
2022-09-30T01:37:52.467Z,84.87
2022-09-30T01:40:30.045Z,84.90
2022-09-30T01:43:30.806Z,84.70
2022-09-30T01:46:13.488Z,84.93
2022-09-30T01:48:56.070Z,84.61
2022-09-30T01:51:32.077Z,84.61
2022-09-30T01:54:08.330Z,84.66
2022-09-30T01:56:47.440Z,84.84
2022-09-30T01:59:29.860Z,84.91
2022-09-30T02:02:09.040Z,84.84
2022-09-30T02:04:45.222Z,84.95
2022-09-30T02:07:18.665Z,84.78
2022-09-30T02:09:52.049Z,84.69
2022-09-30T02:12:25.508Z,84.59
2022-09-30T02:14:58.980Z,84.83
2022-09-30T02:17:35.395Z,84.83
2022-09-30T02:20:08.851Z,84.90
2022-09-30T02:22:45.444Z,84.80
2022-09-30T02:25:22.298Z,84.91
2022-09-30T02:27:56.624Z,85.12
2022-09-30T02:30:27.658Z,85.22
2022-09-30T02:33:03.991Z,85.14
2022-09-30T02:35:43.524Z,85.15
2022-09-30T02:38:19.524Z,85.08
2022-09-30T02:40:52.917Z,84.99
2022-09-30T02:43:23.503Z,85.14
2022-09-30T02:46:13.597Z,85.17
2022-09-30T02:48:49.920Z,85.32
2022-09-30T02:51:32.155Z,85.20
2022-09-30T02:54:17.657Z,85.21
2022-09-30T02:56:57.241Z,85.23
2022-09-30T02:59:28.543Z,85.20
2022-09-30T03:01:59.613Z,85.48
2022-09-30T03:04:33.201Z,85.40
2022-09-30T03:07:03.591Z,85.33
2022-09-30T03:09:36.300Z,85.42
2022-09-30T03:12:33.852Z,85.51
2022-09-30T03:15:09.928Z,85.69
2022-09-30T03:18:01.045Z,85.34
2022-09-30T03:20:40.444Z,85.39
2022-09-30T03:23:16.778Z,85.35
2022-09-30T03:26:10.078Z,85.22
2022-09-30T03:29:00.930Z,85.50
2022-09-30T03:31:58.868Z,85.45
2022-09-30T03:34:33.215Z,85.41
2022-09-30T03:37:12.135Z,85.42
2022-09-30T03:39:51.267Z,85.36
2022-09-30T03:42:30.688Z,85.41
2022-09-30T03:45:06.916Z,85.35
2022-09-30T03:47:42.817Z,85.17
2022-09-30T03:50:16.551Z,85.28
2022-09-30T03:52:48.515Z,85.53
2022-09-30T03:55:21.686Z,85.60
2022-09-30T03:57:52.079Z,85.40
2022-09-30T04:00:22.569Z,85.44
2022-09-30T04:02:57.638Z,85.49
2022-09-30T04:05:25.428Z,85.34
2022-09-30T04:07:55.729Z,85.18
2022-09-30T04:10:26.047Z,85.30
2022-09-30T04:12:58.072Z,85.65
2022-09-30T04:15:28.608Z,85.63
2022-09-30T04:18:00.011Z,85.45
2022-09-30T04:20:31.392Z,85.42
2022-09-30T04:23:02.731Z,85.41
2022-09-30T04:25:33.028Z,85.38
2022-09-30T04:28:03.570Z,85.35
2022-09-30T04:30:33.940Z,85.37
2022-09-30T04:33:04.320Z,85.39
2022-09-30T04:35:36.222Z,85.38
2022-09-30T04:38:07.389Z,85.58
2022-09-30T04:40:39.393Z,85.32
2022-09-30T04:43:09.789Z,85.30
2022-09-30T04:45:44.700Z,85.34
2022-09-30T04:48:16.204Z,85.32
2022-09-30T04:50:46.664Z,85.43
2022-09-30T04:53:18.214Z,85.40
2022-09-30T04:55:48.513Z,85.47
2022-09-30T04:58:18.936Z,85.43
2022-09-30T05:00:49.324Z,85.31
2022-09-30T05:03:19.857Z,85.54
2022-09-30T05:05:51.236Z,85.52
2022-09-30T05:08:22.889Z,85.48
2022-09-30T05:10:57.972Z,85.38
2022-09-30T05:13:34.105Z,85.41
2022-09-30T05:16:05.979Z,85.23
2022-09-30T05:18:37.066Z,85.44
2022-09-30T05:21:08.996Z,85.45
2022-09-30T05:23:39.393Z,85.40
2022-09-30T05:26:12.640Z,85.44
2022-09-30T05:28:43.301Z,85.34
2022-09-30T05:31:13.880Z,85.27
2022-09-30T05:33:45.009Z,85.22
2022-09-30T05:36:16.967Z,85.24
2022-09-30T05:38:48.873Z,85.29
2022-09-30T05:41:22.557Z,85.25
2022-09-30T05:43:53.064Z,85.31
2022-09-30T05:46:23.472Z,85.24
2022-09-30T05:48:55.178Z,85.14
2022-09-30T05:51:25.629Z,84.92
2022-09-30T05:53:59.154Z,85.25
2022-09-30T05:56:29.529Z,85.22
2022-09-30T05:58:59.959Z,85.19
2022-09-30T06:01:30.452Z,85.09
2022-09-30T06:04:01.155Z,85.01
2022-09-30T06:06:31.637Z,85.07
2022-09-30T06:09:02.176Z,84.92
2022-09-30T06:11:32.801Z,84.83
2022-09-30T06:14:03.291Z,84.97
2022-09-30T06:16:33.693Z,85.03
2022-09-30T06:19:04.111Z,84.70
2022-09-30T06:21:34.479Z,84.21
2022-09-30T06:24:05.019Z,84.16
2022-09-30T06:26:35.412Z,84.03
2022-09-30T06:29:06.330Z,84.19
2022-09-30T06:31:36.740Z,84.22
2022-09-30T06:34:08.019Z,83.92
2022-09-30T06:36:38.322Z,83.84
2022-09-30T06:39:12.925Z,83.65
2022-09-30T06:41:42.477Z,83.43
2022-09-30T06:44:13.456Z,83.15
2022-09-30T06:46:53.257Z,82.97
2022-09-30T06:49:16.264Z,82.69
2022-09-30T06:51:46.635Z,82.80
2022-09-30T06:54:17.100Z,82.95
2022-09-30T06:56:48.995Z,82.64
2022-09-30T06:59:19.480Z,82.63
2022-09-30T07:01:50.059Z,82.26
2022-09-30T07:04:20.905Z,82.34
2022-09-30T07:06:51.328Z,82.60
2022-09-30T07:09:23.379Z,82.50
2022-09-30T07:11:55.457Z,82.55
2022-09-30T07:14:26.163Z,82.26
2022-09-30T07:16:57.003Z,82.08
2022-09-30T07:19:27.425Z,81.22
2022-09-30T07:22:00.093Z,81.00
2022-09-30T07:24:30.982Z,80.97
2022-09-30T07:27:01.374Z,81.24
2022-09-30T07:29:50.194Z,81.25
2022-09-30T07:32:05.483Z,80.80
2022-09-30T07:34:37.151Z,80.68
2022-09-30T07:37:07.557Z,80.73
2022-09-30T07:39:38.824Z,80.12
2022-09-30T07:42:09.355Z,80.21
2022-09-30T07:44:42.619Z,81.01
2022-09-30T07:47:14.968Z,80.02
2022-09-30T07:49:46.341Z,79.68
2022-09-30T07:52:17.227Z,80.18
2022-09-30T07:54:50.559Z,80.05
2022-09-30T07:57:21.582Z,80.55
2022-09-30T07:59:51.968Z,79.89
2022-09-30T08:02:24.191Z,79.33
2022-09-30T08:04:54.631Z,78.76
2022-09-30T08:07:25.050Z,78.57
2022-09-30T08:09:55.493Z,77.42
2022-09-30T08:12:26.003Z,77.77
2022-09-30T08:14:56.544Z,77.27
2022-09-30T08:17:27.107Z,76.73
2022-09-30T08:19:57.443Z,76.47
2022-09-30T08:22:28.274Z,76.68
2022-09-30T08:24:58.662Z,75.99
2022-09-30T08:27:29.257Z,76.26
2022-09-30T08:30:04.239Z,75.90
2022-09-30T08:32:32.639Z,75.42
2022-09-30T08:35:03.058Z,75.39
2022-09-30T08:37:33.817Z,74.58
2022-09-30T08:40:06.045Z,75.12
2022-09-30T08:42:52.767Z,74.28
2022-09-30T08:45:32.240Z,74.51
2022-09-30T08:48:11.544Z,74.04
2022-09-30T08:50:53.525Z,74.05
2022-09-30T08:53:33.080Z,73.81
2022-09-30T08:56:05.887Z,73.66
2022-09-30T08:58:42.199Z,72.68
2022-09-30T09:01:24.804Z,72.76
2022-09-30T09:03:56.903Z,71.52
2022-09-30T09:06:50.515Z,71.88
2022-09-30T09:09:42.612Z,71.41
2022-09-30T09:12:35.243Z,71.11
2022-09-30T09:15:24.290Z,70.37
2022-09-30T09:18:24.419Z,70.17
2022-09-30T09:21:00.245Z,69.68
2022-09-30T09:23:33.786Z,69.09
2022-09-30T09:26:05.711Z,67.57
2022-09-30T09:28:42.253Z,66.19
2022-09-30T09:31:18.998Z,65.29
2022-09-30T09:33:50.154Z,65.78
2022-09-30T09:36:35.808Z,65.51
2022-09-30T09:39:21.524Z,65.26
2022-09-30T09:41:55.400Z,64.46
2022-09-30T09:44:38.031Z,64.28
2022-09-30T09:47:17.191Z,64.82
2022-09-30T09:50:04.797Z,64.32
2022-09-30T09:52:54.843Z,63.72
2022-09-30T09:55:25.608Z,63.21
2022-09-30T09:58:17.308Z,62.92
2022-09-30T10:00:49.742Z,62.05
2022-09-30T10:03:24.184Z,62.18
2022-09-30T10:06:03.696Z,61.55
2022-09-30T10:08:39.860Z,62.64
2022-09-30T10:11:25.838Z,63.06
2022-09-30T10:13:58.823Z,61.89
2022-09-30T10:16:37.573Z,61.94
2022-09-30T10:19:23.107Z,60.42
2022-09-30T10:22:12.328Z,60.50
2022-09-30T10:24:42.709Z,60.74
2022-09-30T10:27:30.380Z,61.36
2022-09-30T10:30:00.749Z,60.97
2022-09-30T10:32:32.547Z,60.76
2022-09-30T10:35:09.102Z,61.89
2022-09-30T10:37:39.497Z,61.23
2022-09-30T10:40:12.615Z,60.87
2022-09-30T10:42:44.779Z,59.78
2022-09-30T10:45:24.649Z,59.96
2022-09-30T10:47:57.696Z,59.70
2022-09-30T10:50:28.153Z,60.35
2022-09-30T10:53:04.510Z,60.44
2022-09-30T10:55:37.708Z,57.87
2022-09-30T10:58:35.248Z,58.23
2022-09-30T11:01:20.597Z,58.98
2022-09-30T11:03:57.012Z,59.04
2022-09-30T11:06:29.702Z,58.97
2022-09-30T11:09:03.410Z,58.69
2022-09-30T11:11:39.915Z,58.88
2022-09-30T11:14:16.406Z,57.69
2022-09-30T11:16:58.616Z,57.83
2022-09-30T11:19:48.487Z,58.09
2022-09-30T11:22:47.652Z,57.89
2022-09-30T11:25:26.770Z,56.93
2022-09-30T11:28:00.379Z,56.14
2022-09-30T11:30:45.895Z,55.23
2022-09-30T11:33:34.518Z,54.49
2022-09-30T11:36:16.223Z,52.44
2022-09-30T11:38:52.371Z,48.57
2022-09-30T11:41:31.461Z,43.22
2022-09-30T11:44:10.655Z,38.09
2022-09-30T11:47:07.549Z,35.23
2022-09-30T11:50:01.701Z,32.92
2022-09-30T11:52:37.962Z,33.30
2022-09-30T11:55:31.442Z,32.37
2022-09-30T11:58:36.140Z,32.43
2022-09-30T12:00:47.375Z,36.80
2022-09-30T12:03:38.936Z,39.12
2022-09-30T12:06:15.433Z,38.60
2022-09-30T12:08:49.851Z,35.69
2022-09-30T12:11:26.373Z,35.64
2022-09-30T12:14:00.060Z,37.06
2022-09-30T12:16:34.104Z,38.33
2022-09-30T12:19:07.592Z,42.50
2022-09-30T12:21:53.170Z,44.51
2022-09-30T12:24:38.545Z,45.87
2022-09-30T12:27:18.216Z,46.40
2022-09-30T12:30:09.485Z,47.15
2022-09-30T12:32:42.941Z,47.80
2022-09-30T12:35:39.272Z,47.59
2022-09-30T12:38:12.738Z,47.43
2022-09-30T12:41:03.170Z,48.04
2022-09-30T12:43:57.716Z,48.74
2022-09-30T12:46:52.230Z,49.86
2022-09-30T12:49:26.127Z,49.45
2022-09-30T12:51:59.712Z,49.49
2022-09-30T12:54:36.202Z,48.78
2022-09-30T12:57:09.162Z,46.92
2022-09-30T12:59:42.787Z,48.01
2022-09-30T13:02:16.214Z,48.59
2022-09-30T13:04:46.562Z,49.28
2022-09-30T13:07:23.866Z,49.57
2022-09-30T13:09:59.775Z,49.46
2022-09-30T13:12:42.081Z,50.14
2022-09-30T13:15:34.318Z,50.59
2022-09-30T13:18:27.004Z,51.11
2022-09-30T13:21:11.645Z,50.77
2022-09-30T13:24:00.305Z,51.07
2022-09-30T13:26:42.966Z,51.20
2022-09-30T13:29:19.817Z,51.82
2022-09-30T13:31:53.520Z,51.68
2022-09-30T13:34:32.833Z,52.13
2022-09-30T13:37:05.253Z,51.64
2022-09-30T13:39:47.926Z,52.60
2022-09-30T13:42:28.827Z,51.12
2022-09-30T13:45:21.717Z,50.33
2022-09-30T13:48:11.046Z,49.40
2022-09-30T13:50:54.094Z,49.07
2022-09-30T13:53:52.410Z,49.10
2022-09-30T13:56:26.088Z,47.40
2022-09-30T13:59:14.671Z,48.27
2022-09-30T14:01:56.437Z,48.98
2022-09-30T14:04:53.265Z,49.56
2022-09-30T14:07:51.469Z,49.40
2022-09-30T14:10:30.752Z,50.68
2022-09-30T14:13:09.903Z,49.72
2022-09-30T14:15:46.875Z,49.38
2022-09-30T14:18:32.420Z,48.42
2022-09-30T14:21:22.323Z,48.80
2022-09-30T14:24:15.100Z,48.54
2022-09-30T14:27:03.681Z,48.14
2022-09-30T14:29:54.033Z,48.51
2022-09-30T14:32:36.582Z,48.43
2022-09-30T14:35:09.732Z,48.78
2022-09-30T14:37:45.757Z,48.96
2022-09-30T14:40:22.321Z,48.87
2022-09-30T14:42:53.646Z,48.68
2022-09-30T14:45:27.455Z,49.02
2022-09-30T14:48:01.592Z,49.38
2022-09-30T14:50:35.032Z,48.39
2022-09-30T14:53:05.343Z,48.07
2022-09-30T14:55:37.985Z,48.45
2022-09-30T14:58:29.643Z,49.47
2022-09-30T15:01:03.148Z,49.55
2022-09-30T15:03:39.690Z,50.00
2022-09-30T15:06:19.188Z,51.32
2022-09-30T15:08:51.345Z,51.46
2022-09-30T15:11:26.040Z,51.45
2022-09-30T15:14:09.197Z,52.06
2022-09-30T15:16:51.479Z,51.73
2022-09-30T15:19:24.876Z,52.45
2022-09-30T15:21:58.506Z,52.96
2022-09-30T15:24:31.301Z,52.37
2022-09-30T15:27:03.234Z,52.93
2022-09-30T15:29:33.548Z,53.36
2022-09-30T15:32:15.787Z,54.15
2022-09-30T15:34:46.181Z,53.58
2022-09-30T15:37:26.638Z,53.36
2022-09-30T15:40:15.499Z,53.60
2022-09-30T15:42:59.237Z,52.92
2022-09-30T15:45:35.345Z,52.70
2022-09-30T15:48:07.395Z,52.68
2022-09-30T15:50:47.946Z,52.35
2022-09-30T15:53:25.488Z,52.61
2022-09-30T15:55:56.734Z,53.88
2022-09-30T15:58:38.694Z,54.35
2022-09-30T16:01:19.539Z,54.26
2022-09-30T16:03:59.697Z,54.64
2022-09-30T16:06:35.047Z,55.11
2022-09-30T16:09:09.283Z,56.98
2022-09-30T16:11:47.653Z,56.67
2022-09-30T16:14:30.230Z,58.67
2022-09-30T16:17:03.875Z,57.69
2022-09-30T16:19:34.891Z,58.94
2022-09-30T16:22:08.341Z,59.89
2022-09-30T16:24:41.813Z,59.13
2022-09-30T16:27:28.557Z,62.97
2022-09-30T16:30:00.077Z,63.19
2022-09-30T16:32:33.380Z,63.27
2022-09-30T16:35:04.718Z,64.36
2022-09-30T16:37:35.296Z,65.59
2022-09-30T16:40:10.345Z,63.44
2022-09-30T16:42:40.858Z,65.01
2022-09-30T16:45:14.951Z,65.08
2022-09-30T16:47:46.156Z,64.53
2022-09-30T16:50:37.658Z,65.81
2022-09-30T16:53:09.690Z,66.50
2022-09-30T16:55:40.506Z,65.04
2022-09-30T16:58:12.875Z,63.86
2022-09-30T17:00:45.293Z,63.89
2022-09-30T17:03:17.827Z,65.27
2022-09-30T17:05:50.207Z,66.31
2022-09-30T17:08:22.463Z,67.03
2022-09-30T17:10:52.988Z,66.85
2022-09-30T17:13:23.822Z,67.44
2022-09-30T17:15:55.091Z,68.20
2022-09-30T17:18:25.685Z,69.07
2022-09-30T17:20:56.504Z,69.25
2022-09-30T17:23:27.463Z,69.82
2022-09-30T17:25:58.398Z,69.47
2022-09-30T17:28:28.802Z,69.85
2022-09-30T17:30:59.254Z,69.87
2022-09-30T17:33:35.710Z,70.51
2022-09-30T17:36:11.867Z,71.26
2022-09-30T17:38:42.190Z,71.41
2022-09-30T17:41:42.142Z,70.33
2022-09-30T17:44:12.359Z,71.19
2022-09-30T17:46:45.230Z,71.32
2022-09-30T17:49:24.020Z,72.00
2022-09-30T17:51:54.001Z,70.21
2022-09-30T17:54:24.843Z,71.50
2022-09-30T17:56:57.117Z,72.41
2022-09-30T17:59:28.622Z,70.92
2022-09-30T18:01:59.050Z,72.01
2022-09-30T18:04:29.621Z,72.17
2022-09-30T18:06:59.995Z,72.84
2022-09-30T18:09:30.382Z,73.20
2022-09-30T18:12:00.747Z,73.64
2022-09-30T18:14:36.132Z,72.35
2022-09-30T18:17:07.234Z,73.64
2022-09-30T18:19:37.896Z,73.97
2022-09-30T18:22:08.290Z,72.74
2022-09-30T18:24:56.644Z,73.43
2022-09-30T18:27:28.635Z,74.49
2022-09-30T18:29:59.137Z,74.37
2022-09-30T18:32:29.787Z,73.25
2022-09-30T18:35:00.372Z,73.07
2022-09-30T18:37:32.498Z,73.66
2022-09-30T18:40:04.663Z,72.55
2022-09-30T18:42:36.738Z,73.20
2022-09-30T18:45:09.698Z,73.38
2022-09-30T18:47:45.661Z,72.94
2022-09-30T18:50:18.070Z,71.48
2022-09-30T18:52:48.524Z,71.22
2022-09-30T18:55:19.755Z,70.24
2022-09-30T18:57:51.768Z,72.55
2022-09-30T19:00:30.397Z,70.94
2022-09-30T19:03:08.006Z,73.49
2022-09-30T19:05:38.326Z,72.80
2022-09-30T19:08:09.297Z,72.13
2022-09-30T19:10:43.217Z,71.55
2022-09-30T19:13:13.809Z,71.54
2022-09-30T19:15:46.056Z,73.39
2022-09-30T19:18:16.417Z,74.46
2022-09-30T19:20:46.870Z,72.79
2022-09-30T19:23:17.255Z,75.06
2022-09-30T19:25:49.201Z,74.93
2022-09-30T19:28:22.276Z,75.31
2022-09-30T19:30:52.735Z,75.46
2022-09-30T19:33:24.846Z,75.71
2022-09-30T19:36:14.479Z,75.44
2022-09-30T19:38:40.072Z,76.03
2022-09-30T19:41:11.172Z,74.47
2022-09-30T19:43:42.438Z,74.68
2022-09-30T19:46:13.752Z,76.32
2022-09-30T19:48:45.166Z,74.82
2022-09-30T19:51:19.449Z,76.28
2022-09-30T19:54:03.916Z,76.68
2022-09-30T19:56:24.685Z,76.67
2022-09-30T19:58:57.929Z,76.61
2022-09-30T20:01:29.722Z,76.84
2022-09-30T20:04:05.429Z,76.91
2022-09-30T20:06:37.278Z,75.12
2022-09-30T20:09:08.594Z,76.51
2022-09-30T20:11:40.707Z,77.09
2022-09-30T20:14:29.248Z,77.35
2022-09-30T20:16:59.610Z,77.32
2022-09-30T20:19:30.029Z,76.59
2022-09-30T20:22:00.437Z,77.20
2022-09-30T20:24:31.933Z,77.39
2022-09-30T20:27:02.497Z,77.66
2022-09-30T20:29:33.121Z,77.68
2022-09-30T20:32:03.933Z,77.79
2022-09-30T20:34:38.538Z,77.69
2022-09-30T20:37:06.394Z,77.70
2022-09-30T20:39:38.542Z,76.97
2022-09-30T20:42:08.913Z,77.66
2022-09-30T20:44:39.297Z,77.71
2022-09-30T20:47:09.788Z,77.92
2022-09-30T20:49:40.263Z,77.97
2022-09-30T20:52:10.654Z,77.99
2022-09-30T20:54:41.083Z,78.17
2022-09-30T20:57:11.398Z,78.29
2022-09-30T20:59:41.834Z,78.28
2022-09-30T21:02:14.214Z,78.52
2022-09-30T21:04:45.204Z,78.22
2022-09-30T21:07:16.764Z,77.05
2022-09-30T21:09:48.082Z,75.64
2022-09-30T21:12:18.887Z,76.54
2022-09-30T21:14:49.223Z,76.31
2022-09-30T21:17:19.527Z,76.25
2022-09-30T21:19:50.448Z,76.54
2022-09-30T21:22:20.763Z,76.35
2022-09-30T21:24:51.282Z,77.39
2022-09-30T21:27:22.277Z,76.88
2022-09-30T21:29:54.271Z,77.47
2022-09-30T21:32:24.721Z,77.96
2022-09-30T21:34:56.879Z,78.35
2022-09-30T21:37:27.689Z,78.69
2022-09-30T21:39:58.247Z,78.63
2022-09-30T21:42:28.931Z,78.77
2022-09-30T21:44:59.330Z,78.79
2022-09-30T21:47:29.661Z,78.86
2022-09-30T21:50:00.607Z,79.10
2022-09-30T21:52:32.951Z,78.25
2022-09-30T21:55:03.129Z,78.90
2022-09-30T21:57:33.850Z,78.83
2022-09-30T22:00:05.344Z,79.04
2022-09-30T22:02:36.234Z,79.33
2022-09-30T22:05:07.232Z,79.36
2022-09-30T22:07:38.858Z,79.35
2022-09-30T22:10:09.922Z,79.31
2022-09-30T22:12:40.719Z,79.32
2022-09-30T22:15:11.416Z,79.66
2022-09-30T22:17:41.658Z,79.52
2022-09-30T22:20:13.077Z,79.48
2022-09-30T22:22:43.433Z,79.77
2022-09-30T22:25:15.629Z,79.79
2022-09-30T22:27:46.242Z,79.64
2022-09-30T22:30:16.828Z,79.91
2022-09-30T22:32:48.840Z,80.12
2022-09-30T22:35:37.410Z,80.09
2022-09-30T22:38:15.354Z,79.96
2022-09-30T22:40:45.757Z,80.05
2022-09-30T22:43:16.721Z,80.02
2022-09-30T22:45:47.828Z,80.41
2022-09-30T22:48:18.297Z,80.05
2022-09-30T22:50:48.868Z,79.99
2022-09-30T22:53:19.299Z,79.86
2022-09-30T22:55:49.687Z,78.65
2022-09-30T22:58:21.207Z,78.39
2022-09-30T23:00:59.441Z,79.17
2022-09-30T23:03:29.962Z,79.44
2022-09-30T23:06:06.291Z,79.63
2022-09-30T23:08:45.300Z,79.09
2022-09-30T23:11:17.638Z,79.52
2022-09-30T23:13:48.105Z,79.93
2022-09-30T23:16:18.744Z,79.82
2022-09-30T23:18:49.563Z,79.71
2022-09-30T23:21:20.413Z,79.90
2022-09-30T23:23:50.789Z,78.92
2022-09-30T23:26:25.577Z,79.42
2022-09-30T23:29:00.138Z,79.92
2022-09-30T23:31:31.594Z,79.77
2022-09-30T23:34:03.846Z,79.72
2022-09-30T23:36:36.858Z,78.01
2022-09-30T23:39:20.010Z,78.71
2022-09-30T23:41:50.940Z,78.37
2022-09-30T23:44:21.412Z,77.92
2022-09-30T23:47:10.091Z,78.38
2022-09-30T23:49:41.987Z,78.54
2022-09-30T23:52:13.426Z,78.24
2022-09-30T23:54:44.107Z,78.31
2022-09-30T23:57:14.457Z,78.73
2022-09-30T23:59:44.821Z,79.47
